createdAt,value
2024-05-09T00:02:49.232Z,87.68
2024-05-09T00:09:09.204Z,87.72
2024-05-09T00:15:31.271Z,88.24
2024-05-09T00:21:51.236Z,88.19
2024-05-09T00:28:13.315Z,88.41
2024-05-09T00:34:33.313Z,88.36
2024-05-09T00:40:55.292Z,88.64
2024-05-09T00:47:15.393Z,88.96
2024-05-09T00:53:37.488Z,88.72
2024-05-09T00:59:57.208Z,88.22
2024-05-09T01:06:19.238Z,87.65
2024-05-09T01:12:39.267Z,87.48
2024-05-09T01:19:01.299Z,87.85
2024-05-09T01:25:21.224Z,88.69
2024-05-09T01:31:43.314Z,88.89
2024-05-09T01:38:03.288Z,90.2
2024-05-09T01:44:25.415Z,90.11
2024-05-09T01:50:45.257Z,89.26
2024-05-09T01:57:07.213Z,89.13
2024-05-09T02:03:27.361Z,89.89
2024-05-09T02:09:49.231Z,89.57
2024-05-09T02:16:09.217Z,90.34
2024-05-09T02:22:31.232Z,91.8
2024-05-09T02:28:51.251Z,91.11
2024-05-09T02:35:13.276Z,90.21
2024-05-09T02:41:33.294Z,89.53
2024-05-09T02:47:55.340Z,89.26
2024-05-09T02:54:15.202Z,90.88
2024-05-09T03:00:39.293Z,90.22
2024-05-09T03:06:57.254Z,90.11
2024-05-09T03:13:19.418Z,89.94
2024-05-09T03:29:50.235Z,91.6
2024-05-09T03:36:12.206Z,92.46
2024-05-09T03:42:32.232Z,93.83
2024-05-09T03:48:54.367Z,94.1
2024-05-09T03:55:14.259Z,94.1
2024-05-09T04:01:36.332Z,95.25
2024-05-09T04:07:56.317Z,95.67
2024-05-09T04:14:18.229Z,95.19
2024-05-09T04:20:39.613Z,96.26
2024-05-09T04:27:00.564Z,95.76
2024-05-09T04:33:20.392Z,95.93
2024-05-09T04:39:42.223Z,96.54
2024-05-09T04:46:02.224Z,96.68
2024-05-09T04:52:24.192Z,96.79
2024-05-09T04:58:44.308Z,96.85
2024-05-09T05:05:06.264Z,96.97
2024-05-09T05:11:26.312Z,96.76
2024-05-09T05:17:48.312Z,96.72
2024-05-09T05:24:08.264Z,96.46
2024-05-09T05:30:34.175Z,95.86
2024-05-09T05:36:50.237Z,96.16
2024-05-09T05:43:12.250Z,96.17
2024-05-09T05:49:33.443Z,96.24
2024-05-09T05:55:55.311Z,96.36
2024-05-09T06:02:15.415Z,95.76
2024-05-09T06:08:37.241Z,95.1
2024-05-09T06:14:57.212Z,93.82
2024-05-09T06:21:19.396Z,94.03
2024-05-09T06:27:39.209Z,93.77
2024-05-09T06:34:01.354Z,92.78
2024-05-09T06:40:25.340Z,92.79
2024-05-09T06:46:43.260Z,91.22
2024-05-09T06:53:03.250Z,91.92
2024-05-09T06:59:25.313Z,91.6
2024-05-09T07:05:45.642Z,91.73
2024-05-09T07:12:07.337Z,91.71
2024-05-09T07:18:27.428Z,91.22
2024-05-09T07:24:49.243Z,89.83
2024-05-09T07:31:09.218Z,88.94
2024-05-09T07:37:31.260Z,87.55
2024-05-09T07:43:51.250Z,89.01
2024-05-09T07:56:33.423Z,87.43
2024-05-09T08:02:55.221Z,85.75
2024-05-09T08:09:19.291Z,84.37
2024-05-09T08:15:37.278Z,85.91
2024-05-09T08:21:57.266Z,82.19
2024-05-09T08:39:08.916Z,84.27
2024-05-09T08:45:28.280Z,81.92
2024-05-09T08:51:50.504Z,78.65
2024-05-09T08:58:10.485Z,78.3
2024-05-09T09:04:32.352Z,74.35
2024-05-09T09:10:52.265Z,69.68
2024-05-09T09:17:14.295Z,67.48
2024-05-09T09:23:34.206Z,65.83
2024-05-09T09:29:56.241Z,64.49
2024-05-09T09:36:16.263Z,58.99
2024-05-09T09:42:38.294Z,57.67
2024-05-09T09:48:58.311Z,56.4
2024-05-09T09:55:20.400Z,58.77
2024-05-09T10:01:40.268Z,51.42
2024-05-09T10:08:02.224Z,49.17
2024-05-09T10:14:22.307Z,47.33
2024-05-09T10:20:44.310Z,43.58
2024-05-09T10:27:04.371Z,40.14
2024-05-09T10:33:26.234Z,41.76
2024-05-09T10:39:46.268Z,39.08
2024-05-09T10:46:08.301Z,39.08
2024-05-09T10:52:28.314Z,42.76
2024-05-09T10:58:50.236Z,40.54
2024-05-09T11:05:10.276Z,40.74
2024-05-09T11:11:32.299Z,37.27
2024-05-09T11:17:52.288Z,38.36
2024-05-09T11:24:14.228Z,38.84
2024-05-09T11:30:34.231Z,38.54
2024-05-09T11:36:56.233Z,39.54
2024-05-09T11:43:16.354Z,37.45
2024-05-09T11:49:38.267Z,38.02
2024-05-09T11:55:58.229Z,36.4
2024-05-09T12:02:20.391Z,35.53
2024-05-09T12:08:40.246Z,37.6
2024-05-09T12:15:02.232Z,38.46
2024-05-09T12:21:22.204Z,35
2024-05-09T12:27:44.243Z,34.7
2024-05-09T12:34:04.321Z,34.67
2024-05-09T12:40:31.409Z,33.18
2024-05-09T12:46:46.264Z,33.67
2024-05-09T12:53:08.210Z,31.62
2024-05-09T12:59:28.222Z,30.89
2024-05-09T13:05:50.377Z,36
2024-05-09T13:12:10.207Z,38.82
2024-05-09T13:18:32.347Z,37.36
2024-05-09T13:24:52.238Z,34.7
2024-05-09T13:31:14.260Z,38.78
2024-05-09T13:48:32.169Z,36.7
2024-05-09T13:54:53.239Z,36.29
2024-05-09T14:01:12.310Z,38.35
2024-05-09T14:07:34.228Z,38.19
2024-05-09T14:13:54.194Z,40.28
2024-05-09T14:20:19.753Z,38.87
2024-05-09T14:26:36.219Z,37.62
2024-05-09T14:32:57.271Z,39.17
2024-05-09T14:39:17.291Z,34.74
2024-05-09T14:45:39.490Z,32.98
2024-05-09T14:51:59.247Z,30.24
2024-05-09T14:58:21.294Z,30.52
2024-05-09T15:04:41.313Z,28.11
2024-05-09T15:11:03.294Z,29.87
2024-05-09T15:17:23.207Z,27.68
2024-05-09T15:23:45.242Z,29.89
2024-05-09T15:30:07.027Z,29.22
2024-05-09T15:36:27.225Z,26.81
2024-05-09T15:42:47.386Z,27.82
2024-05-09T15:49:09.318Z,28.49
2024-05-09T15:55:29.213Z,29.39
2024-05-09T16:01:51.271Z,30.36
2024-05-09T16:08:11.214Z,34.46
2024-05-09T16:14:33.204Z,36.04
2024-05-09T16:20:53.212Z,37.69
2024-05-09T16:27:15.213Z,37.54
2024-05-09T16:33:35.312Z,38.07
2024-05-09T16:39:56.295Z,38.36
2024-05-09T16:46:16.356Z,38.69
2024-05-09T16:52:38.203Z,37.11
2024-05-09T16:58:58.230Z,37.16
2024-05-09T17:05:20.320Z,37.27
2024-05-09T17:11:40.284Z,38.4
2024-05-09T17:18:02.364Z,39.09
2024-05-09T17:24:22.208Z,40.32
2024-05-09T17:30:44.243Z,40.5
2024-05-09T17:37:04.279Z,41.58
2024-05-09T17:43:26.351Z,43.98
2024-05-09T17:49:46.248Z,44.03
2024-05-09T17:56:08.240Z,45.28
2024-05-09T18:02:28.344Z,45.08
2024-05-09T18:08:50.202Z,45.34
2024-05-09T18:15:10.259Z,46.37
2024-05-09T18:21:32.244Z,45.99
2024-05-09T18:27:52.318Z,46.24
2024-05-09T18:34:14.509Z,48.28
2024-05-09T18:40:35.597Z,47.75
2024-05-09T18:46:56.469Z,48.57
2024-05-09T18:53:16.490Z,48.01
2024-05-09T18:59:38.355Z,50.24
2024-05-09T19:05:58.300Z,49.39
2024-05-09T19:12:20.245Z,50.17
2024-05-09T19:28:26.273Z,51.95
2024-05-09T19:34:45.192Z,52.77
2024-05-09T19:41:06.219Z,54.8
2024-05-09T19:47:26.436Z,56.03
2024-05-09T19:53:48.243Z,56.71
2024-05-09T20:00:09.728Z,58.39
2024-05-09T20:06:30.230Z,61.03
2024-05-09T20:12:50.274Z,61.88
2024-05-09T20:19:11.344Z,62.01
2024-05-09T20:25:31.382Z,64.35
2024-05-09T20:31:53.228Z,65.09
2024-05-09T20:38:13.232Z,66.71
2024-05-09T20:44:35.226Z,67.77
2024-05-09T20:50:55.227Z,68.55
2024-05-09T20:57:17.205Z,70.16
2024-05-09T21:03:37.415Z,71.28
2024-05-09T21:09:59.231Z,72.03
2024-05-09T21:16:19.318Z,73.51
2024-05-09T21:22:41.288Z,73.15
2024-05-09T21:29:01.272Z,73.8
2024-05-09T21:35:23.246Z,73.6
2024-05-09T21:41:43.224Z,75.22
2024-05-09T21:48:05.390Z,77.19
2024-05-09T21:54:25.217Z,78.29
2024-05-09T22:19:58.231Z,79.24
2024-05-09T22:26:18.203Z,78.75
2024-05-09T22:32:40.312Z,79.86
2024-05-09T22:39:00.325Z,80.13
2024-05-09T22:45:22.224Z,81.21
2024-05-09T22:51:42.244Z,80.63
2024-05-09T22:58:04.304Z,81.38
2024-05-09T23:04:24.238Z,81.23
2024-05-09T23:10:46.334Z,82.11
2024-05-09T23:17:06.270Z,82.09
2024-05-09T23:23:28.325Z,82.94
2024-05-09T23:29:48.227Z,83.14
2024-05-09T23:36:10.285Z,82.6
2024-05-09T23:42:30.210Z,83.32
2024-05-09T23:48:52.304Z,82.93
2024-05-09T23:55:12.296Z,84.02
